• Join FlightAware (Why Join?)
  • Login
  • US Flag 
01:31AM EDT


 

Airport Tracker/Info


-or-


 

Live Flight TrackerFlight Track Log ✈ EGF4247 ✈ 01-May-2013 ✈ KBUF - KORD

Flight Track Log - Related Links

Times and Time Zones

All times are in EDT time to prevent confusion due to time zone crossing. See the EGF4247 flight status page for this flight to view local times or setup timezone preferences in your user account.

Time Position Orientation Groundspeed Altitude Reporting Facility
EDT Latitude Longitude Course Direction KTS MPH feet Rate Location/Type
04:58PM 42.9167 -78.7500 270° West 172 198 1,600  Level Buffalo TRACON
04:59PM 42.9167 -78.7500 270° West 171 197 2,300 2,040 Climbing Buffalo TRACON
05:00PM 42.8833 -78.8333 241° Southwest 233 268 4,300 2,220 Climbing Buffalo TRACON
05:01PM 42.9526 -79.0971 277° West  Level FlightAware Approximate
05:01PM 42.9000 -78.9333 283° West 288 331 6,800  Level Buffalo TRACON
05:02PM 42.9631 -79.2240 277° West  Level FlightAware Approximate
05:02PM 42.9000 -79.0333 270° West 285 328 9,200  Level Buffalo TRACON
05:03PM 42.9667 -79.3515 270° West  Level FlightAware Approximate
05:03PM 42.9167 -79.1500 281° West 308 354 10,700  Level Buffalo TRACON
05:03PM 42.9167 -79.2500 270° West 340 391 12,000 1,200 Climbing Toronto Center
05:04PM 42.9667 -79.4792 270° West  Level FlightAware Approximate
05:04PM 42.9167 -79.3833 270° West 370 426 13,000  Level Toronto Center
05:05PM 42.9333 -79.5500 278° West 380 437 14,800 1,560 Climbing Toronto Center
05:06PM 42.9333 -79.6833 270° West 380 437 16,200 1,500 Climbing Toronto Center
05:07PM 42.9500 -79.8167 280° West 380 437 17,800 1,380 Climbing Toronto Center
05:08PM 42.9667 -79.9667 279° West 380 437 19,000 1,200 Climbing Toronto Center
05:09PM 42.9667 -80.1167 270° West 390 449 20,200 1,200 Climbing Toronto Center
05:10PM 42.9833 -80.2667 279° West 400 460 21,400 1,200 Climbing Toronto Center
05:11PM 42.9833 -80.4333 270° West 410 472 22,700 1,200 Climbing Toronto Center
05:12PM 42.9833 -80.5667 270° West 410 472 23,900 960 Climbing Toronto Center
05:13PM 42.9833 -80.7333 270° West 410 472 24,700 660 Climbing Toronto Center
05:14PM 42.9667 -80.8833 261° West 420 483 25,300 660 Climbing Toronto Center
05:15PM 42.9667 -81.0667 270° West 430 495 26,100 720 Climbing Toronto Center
05:16PM 42.9833 -81.2333 278° West 430 495 26,800 660 Climbing Toronto Center
05:17PM 42.9833 -81.3833 270° West 430 495 27,500 600 Climbing Toronto Center
05:18PM 42.9833 -81.5500 270° West 430 495 28,100 540 Climbing Toronto Center
05:19PM 42.9833 -81.7333 270° West 440 506 28,600 480 Climbing Toronto Center
05:20PM 42.9833 -81.8833 270° West 440 506 29,100 480 Climbing Toronto Center
05:21PM 42.9667 -82.0500 262° West 440 506 29,600 480 Climbing Toronto Center
05:22PM 42.9667 -82.2333 270° West 450 518 30,100 600 Climbing Toronto Center
05:23PM 42.9833 -82.3833 279° West 450 518 30,800 660 Climbing Toronto Center
05:24PM 42.9833 -82.5667 270° West 450 518 31,500 660 Climbing Toronto Center
05:25PM 42.9828 -82.6947 270° West 451 519 32,000 240 Climbing Cleveland Center
05:26PM 42.9817 -82.8650 270° West 451 519 32,000  Level Cleveland Center
05:27PM 42.9781 -83.0378 268° West 457 526 32,000  Level Cleveland Center
05:28PM 42.9742 -83.2081 268° West 457 526 32,000  Level Cleveland Center
05:29PM 42.9722 -83.3811 269° West 457 526 32,000  Level Cleveland Center
05:30PM 42.9700 -83.5542 269° West 457 526 32,000  Level Cleveland Center
05:31PM 42.9656 -83.7214 268° West 457 526 32,000  Level Cleveland Center
05:32PM 42.9525 -83.8936 264° West 457 526 32,000  Level Cleveland Center
05:33PM 42.9344 -84.0772 262° West 462 532 32,000  Level Cleveland Center
05:34PM 42.9169 -84.2464 262° West 462 532 32,000  Level Cleveland Center
05:36PM 42.8994 -84.4253 262° West 446 513 32,000  Level Chicago Center
05:37PM 42.8817 -84.5933 262° West 449 517 32,000  Level Chicago Center
05:38PM 42.8617 -84.7983 262° West 454 522 32,000  Level Chicago Center
05:39PM 42.8425 -84.9686 261° West 455 524 32,000  Level Chicago Center
05:40PM 42.8253 -85.1394 262° West 455 524 32,000  Level Chicago Center
05:41PM 42.8072 -85.3086 262° West 453 521 32,000 -300 Level Chicago Center
05:42PM 42.7886 -85.4781 262° West 452 520 31,400 -1,620 Descending Chicago Center
05:43PM 42.7600 -85.6436 257° West 449 517 28,700 -3,000 Descending Chicago Center
05:44PM 42.7225 -85.8467 256° West 456 525 25,200 -3,000 Descending Chicago Center
05:45PM 42.6933 -86.0122 257° West 449 517 22,600 -2,280 Descending Chicago Center
05:46PM 42.6642 -86.1692 256° West 432 497 20,500 -1,260 Descending Chicago Center
05:47PM 42.6358 -86.3225 256° West 420 483 20,000 -300 Descending Chicago Center
05:48PM 42.6061 -86.4750 255° West 419 482 20,000 -1,080 Level Chicago Center
05:49PM 42.5786 -86.6219 256° West 407 468 17,800 -2,400 Descending Chicago Center
05:50PM 42.5514 -86.7647 256° West 394 453 15,100 -2,760 Descending Chicago Center
05:51PM 42.5075 -86.9197 249° West 370 426 12,100 -2,520 Descending Chicago Center
05:52PM 42.4739 -87.0428 250° West 356 410 10,000 -1,080 Descending Chicago Center
05:53PM 42.4411 -87.1583 249° West 336 387 9,900 -120 Descending Chicago Center
05:54PM 42.4117 -87.2656 250° West 308 354 9,800 -540 Descending Chicago Center
05:55PM 42.3872 -87.3575 250° West 263 303 8,800 -1,080 Descending Chicago Center
05:56PM 42.3558 -87.4644 248° West 260 299 7,600 -900 Descending Chicago Center
05:57PM 42.3161 -87.5439 236° Southwest 257 296 7,000 -300 Descending Chicago Center
05:58PM 42.2606 -87.6031 218° Southwest 254 292 7,000 -420 Level Chicago Center
05:59PM 42.2128 -87.6569 220° Southwest 227 261 6,200 -1,020 Descending Chicago Center
06:00PM 42.1669 -87.7094 220° Southwest 218 251 4,900 -1,320 Descending Chicago Center
06:01PM 42.1125 -87.7706 220° Southwest 215 247 3,500 -1,260 Descending Chicago Center
06:02PM 42.1000 -87.7833 217° Southwest 220 253 3,200 -960 Descending Chicago TRACON